sensor_id;sensor_type;location;lat;lon;timestamp;P1;durP1;ratioP1;P2;durP2;ratioP2
48241;SDS011;34041;51.812;4.622;2022-09-09T00:00:31;3.10;;;2.22;;
48241;SDS011;34041;51.812;4.622;2022-09-09T00:03:53;2.25;;;1.50;;
48241;SDS011;34041;51.812;4.622;2022-09-09T00:06:56;5.82;;;1.85;;
48241;SDS011;34041;51.812;4.622;2022-09-09T00:16:38;2.90;;;1.65;;
48241;SDS011;34041;51.812;4.622;2022-09-09T00:22:59;4.95;;;2.35;;
48241;SDS011;34041;51.812;4.622;2022-09-09T00:32:22;5.07;;;1.73;;
48241;SDS011;34041;51.812;4.622;2022-09-09T00:35:29;4.18;;;1.95;;
48241;SDS011;34041;51.812;4.622;2022-09-09T00:44:36;5.22;;;2.30;;
48241;SDS011;34041;51.812;4.622;2022-09-09T00:47:43;4.13;;;2.17;;
48241;SDS011;34041;51.812;4.622;2022-09-09T01:06:35;3.05;;;1.63;;
48241;SDS011;34041;51.812;4.622;2022-09-09T01:13:11;5.20;;;1.88;;
48241;SDS011;34041;51.812;4.622;2022-09-09T01:16:13;3.63;;;1.90;;
48241;SDS011;34041;51.812;4.622;2022-09-09T01:19:18;4.18;;;1.55;;
48241;SDS011;34041;51.812;4.622;2022-09-09T01:28:45;7.32;;;1.98;;
48241;SDS011;34041;51.812;4.622;2022-09-09T01:34:46;4.05;;;2.20;;
48241;SDS011;34041;51.812;4.622;2022-09-09T01:37:46;5.53;;;2.13;;
48241;SDS011;34041;51.812;4.622;2022-09-09T01:40:47;8.68;;;2.22;;
48241;SDS011;34041;51.812;4.622;2022-09-09T01:43:47;6.25;;;2.50;;
48241;SDS011;34041;51.812;4.622;2022-09-09T01:46:48;4.93;;;2.45;;
48241;SDS011;34041;51.812;4.622;2022-09-09T01:49:48;5.22;;;2.47;;
48241;SDS011;34041;51.812;4.622;2022-09-09T01:52:58;3.67;;;2.20;;
48241;SDS011;34041;51.812;4.622;2022-09-09T01:56:02;3.67;;;1.98;;
48241;SDS011;34041;51.812;4.622;2022-09-09T02:08:24;4.70;;;2.20;;
48241;SDS011;34041;51.812;4.622;2022-09-09T02:11:27;4.15;;;1.85;;
48241;SDS011;34041;51.812;4.622;2022-09-09T02:14:29;6.35;;;2.42;;
48241;SDS011;34041;51.812;4.622;2022-09-09T02:17:31;5.80;;;2.85;;
48241;SDS011;34041;51.812;4.622;2022-09-09T02:20:32;3.50;;;2.28;;
48241;SDS011;34041;51.812;4.622;2022-09-09T02:23:33;3.70;;;2.15;;
48241;SDS011;34041;51.812;4.622;2022-09-09T02:26:34;4.43;;;2.75;;
48241;SDS011;34041;51.812;4.622;2022-09-09T02:29:40;6.90;;;2.10;;
48241;SDS011;34041;51.812;4.622;2022-09-09T02:32:41;7.03;;;2.03;;
48241;SDS011;34041;51.812;4.622;2022-09-09T02:35:43;3.65;;;1.92;;
48241;SDS011;34041;51.812;4.622;2022-09-09T02:38:46;3.95;;;2.78;;
48241;SDS011;34041;51.812;4.622;2022-09-09T02:41:50;4.45;;;2.53;;
48241;SDS011;34041;51.812;4.622;2022-09-09T02:44:50;5.22;;;1.90;;
48241;SDS011;34041;51.812;4.622;2022-09-09T02:54:02;3.58;;;1.98;;
48241;SDS011;34041;51.812;4.622;2022-09-09T02:57:11;2.70;;;1.75;;
48241;SDS011;34041;51.812;4.622;2022-09-09T03:00:11;5.93;;;2.13;;
48241;SDS011;34041;51.812;4.622;2022-09-09T03:03:12;8.25;;;2.90;;
48241;SDS011;34041;51.812;4.622;2022-09-09T03:06:13;5.28;;;2.05;;
48241;SDS011;34041;51.812;4.622;2022-09-09T03:09:14;3.85;;;1.85;;
48241;SDS011;34041;51.812;4.622;2022-09-09T03:12:14;7.87;;;2.20;;
48241;SDS011;34041;51.812;4.622;2022-09-09T03:15:14;4.57;;;1.90;;
48241;SDS011;34041;51.812;4.622;2022-09-09T03:18:15;4.07;;;1.63;;
48241;SDS011;34041;51.812;4.622;2022-09-09T03:21:15;6.90;;;2.33;;
48241;SDS011;34041;51.812;4.622;2022-09-09T03:24:15;3.53;;;2.30;;
48241;SDS011;34041;51.812;4.622;2022-09-09T03:27:16;3.70;;;1.80;;
48241;SDS011;34041;51.812;4.622;2022-09-09T03:30:16;3.73;;;2.23;;
48241;SDS011;34041;51.812;4.622;2022-09-09T03:33:16;8.32;;;2.70;;
48241;SDS011;34041;51.812;4.622;2022-09-09T03:36:17;4.78;;;2.15;;
48241;SDS011;34041;51.812;4.622;2022-09-09T03:39:17;6.07;;;1.87;;
48241;SDS011;34041;51.812;4.622;2022-09-09T03:42:18;7.32;;;2.03;;
48241;SDS011;34041;51.812;4.622;2022-09-09T03:45:18;4.85;;;1.95;;
48241;SDS011;34041;51.812;4.622;2022-09-09T03:48:18;6.37;;;2.23;;
48241;SDS011;34041;51.812;4.622;2022-09-09T03:51:19;4.75;;;2.42;;
48241;SDS011;34041;51.812;4.622;2022-09-09T03:54:19;6.40;;;2.43;;
48241;SDS011;34041;51.812;4.622;2022-09-09T03:57:19;5.72;;;2.78;;
48241;SDS011;34041;51.812;4.622;2022-09-09T04:00:20;7.35;;;1.50;;
48241;SDS011;34041;51.812;4.622;2022-09-09T04:03:21;8.30;;;2.03;;
48241;SDS011;34041;51.812;4.622;2022-09-09T04:06:22;6.47;;;2.47;;
48241;SDS011;34041;51.812;4.622;2022-09-09T04:09:22;4.80;;;2.50;;
48241;SDS011;34041;51.812;4.622;2022-09-09T04:12:23;6.93;;;2.28;;
48241;SDS011;34041;51.812;4.622;2022-09-09T04:15:23;6.05;;;2.38;;
48241;SDS011;34041;51.812;4.622;2022-09-09T04:18:23;9.60;;;2.70;;
48241;SDS011;34041;51.812;4.622;2022-09-09T04:21:24;5.75;;;2.55;;
48241;SDS011;34041;51.812;4.622;2022-09-09T04:24:24;4.13;;;1.97;;
48241;SDS011;34041;51.812;4.622;2022-09-09T04:27:27;6.90;;;2.33;;
48241;SDS011;34041;51.812;4.622;2022-09-09T04:30:27;8.13;;;2.57;;
48241;SDS011;34041;51.812;4.622;2022-09-09T04:33:27;4.75;;;2.05;;
48241;SDS011;34041;51.812;4.622;2022-09-09T04:36:28;6.90;;;2.30;;
48241;SDS011;34041;51.812;4.622;2022-09-09T04:39:28;7.33;;;2.13;;
48241;SDS011;34041;51.812;4.622;2022-09-09T04:42:28;8.57;;;1.80;;
48241;SDS011;34041;51.812;4.622;2022-09-09T04:45:28;7.83;;;2.07;;
48241;SDS011;34041;51.812;4.622;2022-09-09T04:48:29;7.28;;;2.25;;
48241;SDS011;34041;51.812;4.622;2022-09-09T04:51:31;6.10;;;1.88;;
48241;SDS011;34041;51.812;4.622;2022-09-09T04:54:31;9.63;;;2.67;;
48241;SDS011;34041;51.812;4.622;2022-09-09T04:57:32;5.68;;;2.22;;
48241;SDS011;34041;51.812;4.622;2022-09-09T05:00:33;7.40;;;2.70;;
48241;SDS011;34041;51.812;4.622;2022-09-09T05:03:34;4.13;;;2.08;;
48241;SDS011;34041;51.812;4.622;2022-09-09T05:06:34;6.90;;;2.55;;
48241;SDS011;34041;51.812;4.622;2022-09-09T05:09:36;8.73;;;2.53;;
48241;SDS011;34041;51.812;4.622;2022-09-09T05:12:36;5.25;;;1.77;;
48241;SDS011;34041;51.812;4.622;2022-09-09T05:15:36;4.40;;;2.17;;
48241;SDS011;34041;51.812;4.622;2022-09-09T05:18:40;6.20;;;1.80;;
48241;SDS011;34041;51.812;4.622;2022-09-09T05:21:41;7.65;;;2.25;;
48241;SDS011;34041;51.812;4.622;2022-09-09T05:24:41;8.63;;;2.17;;
48241;SDS011;34041;51.812;4.622;2022-09-09T05:27:42;5.35;;;1.95;;
48241;SDS011;34041;51.812;4.622;2022-09-09T05:30:42;9.03;;;2.90;;
48241;SDS011;34041;51.812;4.622;2022-09-09T05:33:44;8.60;;;1.93;;
48241;SDS011;34041;51.812;4.622;2022-09-09T05:36:45;7.50;;;2.67;;
48241;SDS011;34041;51.812;4.622;2022-09-09T05:39:46;11.18;;;2.53;;
48241;SDS011;34041;51.812;4.622;2022-09-09T05:42:47;5.53;;;1.93;;
48241;SDS011;34041;51.812;4.622;2022-09-09T05:45:47;5.40;;;1.90;;
48241;SDS011;34041;51.812;4.622;2022-09-09T05:48:48;8.45;;;2.30;;
48241;SDS011;34041;51.812;4.622;2022-09-09T05:51:50;5.20;;;1.73;;
48241;SDS011;34041;51.812;4.622;2022-09-09T05:54:50;12.60;;;2.53;;
48241;SDS011;34041;51.812;4.622;2022-09-09T05:57:51;6.68;;;2.00;;
48241;SDS011;34041;51.812;4.622;2022-09-09T06:00:51;7.30;;;2.90;;
48241;SDS011;34041;51.812;4.622;2022-09-09T06:03:52;8.07;;;1.77;;
48241;SDS011;34041;51.812;4.622;2022-09-09T06:06:52;5.55;;;2.65;;
48241;SDS011;34041;51.812;4.622;2022-09-09T06:09:52;16.30;;;3.00;;
48241;SDS011;34041;51.812;4.622;2022-09-09T06:12:52;8.25;;;2.25;;
48241;SDS011;34041;51.812;4.622;2022-09-09T06:15:53;5.20;;;2.85;;
48241;SDS011;34041;51.812;4.622;2022-09-09T06:18:53;7.23;;;2.57;;
48241;SDS011;34041;51.812;4.622;2022-09-09T06:21:54;12.38;;;2.75;;
48241;SDS011;34041;51.812;4.622;2022-09-09T06:24:55;6.68;;;3.30;;
48241;SDS011;34041;51.812;4.622;2022-09-09T06:27:55;6.30;;;2.22;;
48241;SDS011;34041;51.812;4.622;2022-09-09T06:31:14;5.28;;;2.53;;
48241;SDS011;34041;51.812;4.622;2022-09-09T06:34:17;13.82;;;2.72;;
48241;SDS011;34041;51.812;4.622;2022-09-09T06:37:17;7.23;;;2.40;;
48241;SDS011;34041;51.812;4.622;2022-09-09T06:40:17;8.82;;;1.92;;
48241;SDS011;34041;51.812;4.622;2022-09-09T06:43:17;5.83;;;2.77;;
48241;SDS011;34041;51.812;4.622;2022-09-09T06:46:20;4.93;;;2.30;;
48241;SDS011;34041;51.812;4.622;2022-09-09T06:49:21;4.97;;;2.20;;
48241;SDS011;34041;51.812;4.622;2022-09-09T06:52:21;5.57;;;2.30;;
48241;SDS011;34041;51.812;4.622;2022-09-09T06:55:22;10.47;;;2.83;;
48241;SDS011;34041;51.812;4.622;2022-09-09T06:58:22;7.97;;;2.57;;
48241;SDS011;34041;51.812;4.622;2022-09-09T07:01:23;4.90;;;2.13;;
48241;SDS011;34041;51.812;4.622;2022-09-09T07:04:23;7.72;;;2.58;;
48241;SDS011;34041;51.812;4.622;2022-09-09T07:07:25;4.93;;;2.33;;
48241;SDS011;34041;51.812;4.622;2022-09-09T07:10:25;7.80;;;2.40;;
48241;SDS011;34041;51.812;4.622;2022-09-09T07:13:25;8.18;;;2.17;;
48241;SDS011;34041;51.812;4.622;2022-09-09T07:16:27;6.47;;;2.13;;
48241;SDS011;34041;51.812;4.622;2022-09-09T07:19:27;9.95;;;3.10;;
48241;SDS011;34041;51.812;4.622;2022-09-09T07:22:28;9.32;;;2.92;;
48241;SDS011;34041;51.812;4.622;2022-09-09T07:25:28;10.43;;;2.90;;
48241;SDS011;34041;51.812;4.622;2022-09-09T07:28:30;7.05;;;2.95;;
48241;SDS011;34041;51.812;4.622;2022-09-09T07:31:32;6.05;;;1.95;;
48241;SDS011;34041;51.812;4.622;2022-09-09T07:34:33;7.93;;;2.47;;
48241;SDS011;34041;51.812;4.622;2022-09-09T07:37:35;7.15;;;2.58;;
48241;SDS011;34041;51.812;4.622;2022-09-09T07:40:35;7.38;;;3.10;;
48241;SDS011;34041;51.812;4.622;2022-09-09T07:43:36;9.05;;;2.85;;
48241;SDS011;34041;51.812;4.622;2022-09-09T07:46:37;5.18;;;3.08;;
48241;SDS011;34041;51.812;4.622;2022-09-09T07:49:39;12.13;;;3.47;;
48241;SDS011;34041;51.812;4.622;2022-09-09T07:52:40;8.00;;;3.05;;
48241;SDS011;34041;51.812;4.622;2022-09-09T07:55:41;5.43;;;2.42;;
48241;SDS011;34041;51.812;4.622;2022-09-09T07:58:41;14.35;;;3.90;;
48241;SDS011;34041;51.812;4.622;2022-09-09T08:01:45;6.10;;;3.08;;
48241;SDS011;34041;51.812;4.622;2022-09-09T08:04:46;8.05;;;2.72;;
48241;SDS011;34041;51.812;4.622;2022-09-09T08:07:46;7.33;;;2.53;;
48241;SDS011;34041;51.812;4.622;2022-09-09T08:10:47;5.07;;;2.10;;
48241;SDS011;34041;51.812;4.622;2022-09-09T08:13:47;7.13;;;2.93;;
48241;SDS011;34041;51.812;4.622;2022-09-09T08:16:48;6.68;;;2.60;;
48241;SDS011;34041;51.812;4.622;2022-09-09T08:19:49;5.82;;;2.13;;
48241;SDS011;34041;51.812;4.622;2022-09-09T08:22:49;8.32;;;2.83;;
48241;SDS011;34041;51.812;4.622;2022-09-09T08:25:50;5.07;;;2.42;;
48241;SDS011;34041;51.812;4.622;2022-09-09T08:28:51;8.73;;;2.50;;
48241;SDS011;34041;51.812;4.622;2022-09-09T08:31:53;9.65;;;2.15;;
48241;SDS011;34041;51.812;4.622;2022-09-09T08:34:57;6.82;;;3.25;;
48241;SDS011;34041;51.812;4.622;2022-09-09T08:37:57;8.20;;;2.57;;
48241;SDS011;34041;51.812;4.622;2022-09-09T08:41:00;8.37;;;2.77;;
48241;SDS011;34041;51.812;4.622;2022-09-09T08:50:40;10.00;;;2.83;;
48241;SDS011;34041;51.812;4.622;2022-09-09T08:53:42;9.40;;;2.78;;
48241;SDS011;34041;51.812;4.622;2022-09-09T08:56:43;13.25;;;2.92;;
48241;SDS011;34041;51.812;4.622;2022-09-09T08:59:44;8.88;;;3.88;;
48241;SDS011;34041;51.812;4.622;2022-09-09T09:05:51;11.38;;;2.70;;
48241;SDS011;34041;51.812;4.622;2022-09-09T09:12:38;5.90;;;2.63;;
48241;SDS011;34041;51.812;4.622;2022-09-09T09:15:40;11.70;;;2.65;;
48241;SDS011;34041;51.812;4.622;2022-09-09T09:18:41;7.15;;;2.70;;
48241;SDS011;34041;51.812;4.622;2022-09-09T09:21:43;7.28;;;2.33;;
48241;SDS011;34041;51.812;4.622;2022-09-09T09:28:30;9.45;;;2.30;;
48241;SDS011;34041;51.812;4.622;2022-09-09T09:31:06;8.73;;;3.03;;
48241;SDS011;34041;51.812;4.622;2022-09-09T09:34:07;7.32;;;2.80;;
48241;SDS011;34041;51.812;4.622;2022-09-09T09:37:25;9.40;;;2.13;;
48241;SDS011;34041;51.812;4.622;2022-09-09T09:40:27;11.05;;;3.05;;
48241;SDS011;34041;51.812;4.622;2022-09-09T09:43:29;12.18;;;3.20;;
48241;SDS011;34041;51.812;4.622;2022-09-09T09:46:29;8.48;;;1.98;;
48241;SDS011;34041;51.812;4.622;2022-09-09T09:49:30;8.07;;;2.78;;
48241;SDS011;34041;51.812;4.622;2022-09-09T09:52:32;8.45;;;2.42;;
48241;SDS011;34041;51.812;4.622;2022-09-09T09:55:34;7.72;;;2.10;;
48241;SDS011;34041;51.812;4.622;2022-09-09T09:58:38;9.48;;;2.95;;
48241;SDS011;34041;51.812;4.622;2022-09-09T10:01:47;10.02;;;2.08;;
48241;SDS011;34041;51.812;4.622;2022-09-09T10:04:47;9.10;;;2.63;;
48241;SDS011;34041;51.812;4.622;2022-09-09T10:08:00;11.03;;;3.07;;
48241;SDS011;34041;51.812;4.622;2022-09-09T10:11:06;8.17;;;2.60;;
48241;SDS011;34041;51.812;4.622;2022-09-09T10:27:19;6.13;;;2.63;;
48241;SDS011;34041;51.812;4.622;2022-09-09T10:30:29;5.45;;;1.80;;
48241;SDS011;34041;51.812;4.622;2022-09-09T10:36:39;4.95;;;2.17;;
48241;SDS011;34041;51.812;4.622;2022-09-09T10:39:44;8.93;;;2.67;;
48241;SDS011;34041;51.812;4.622;2022-09-09T10:42:44;6.23;;;2.10;;
48241;SDS011;34041;51.812;4.622;2022-09-09T10:45:49;11.27;;;2.63;;
48241;SDS011;34041;51.812;4.622;2022-09-09T10:51:56;6.20;;;2.37;;
48241;SDS011;34041;51.812;4.622;2022-09-09T10:57:59;7.37;;;3.00;;
48241;SDS011;34041;51.812;4.622;2022-09-09T11:01:06;4.10;;;2.28;;
48241;SDS011;34041;51.812;4.622;2022-09-09T11:07:22;7.78;;;2.90;;
48241;SDS011;34041;51.812;4.622;2022-09-09T11:10:34;6.70;;;3.40;;
48241;SDS011;34041;51.812;4.622;2022-09-09T11:17:04;5.68;;;2.33;;
48241;SDS011;34041;51.812;4.622;2022-09-09T11:20:05;6.60;;;2.65;;
48241;SDS011;34041;51.812;4.622;2022-09-09T11:23:11;6.32;;;2.60;;
48241;SDS011;34041;51.812;4.622;2022-09-09T11:26:16;6.03;;;2.65;;
48241;SDS011;34041;51.812;4.622;2022-09-09T11:38:27;7.70;;;2.97;;
48241;SDS011;34041;51.812;4.622;2022-09-09T11:41:33;3.33;;;1.77;;
48241;SDS011;34041;51.812;4.622;2022-09-09T11:44:33;5.20;;;2.30;;
48241;SDS011;34041;51.812;4.622;2022-09-09T11:47:34;6.30;;;1.90;;
48241;SDS011;34041;51.812;4.622;2022-09-09T11:50:35;6.97;;;2.40;;
48241;SDS011;34041;51.812;4.622;2022-09-09T11:53:47;7.03;;;2.78;;
48241;SDS011;34041;51.812;4.622;2022-09-09T11:56:49;6.05;;;2.45;;
48241;SDS011;34041;51.812;4.622;2022-09-09T11:59:50;6.53;;;2.03;;
48241;SDS011;34041;51.812;4.622;2022-09-09T12:02:52;5.55;;;2.60;;
48241;SDS011;34041;51.812;4.622;2022-09-09T12:05:52;5.00;;;2.10;;
48241;SDS011;34041;51.812;4.622;2022-09-09T12:08:54;4.25;;;2.08;;
48241;SDS011;34041;51.812;4.622;2022-09-09T12:18:14;6.40;;;2.33;;
48241;SDS011;34041;51.812;4.622;2022-09-09T12:24:44;8.95;;;2.90;;
48241;SDS011;34041;51.812;4.622;2022-09-09T12:28:02;5.18;;;1.52;;
48241;SDS011;34041;51.812;4.622;2022-09-09T12:37:31;11.20;;;2.70;;
48241;SDS011;34041;51.812;4.622;2022-09-09T12:40:33;6.00;;;1.98;;
48241;SDS011;34041;51.812;4.622;2022-09-09T12:43:35;4.70;;;1.60;;
48241;SDS011;34041;51.812;4.622;2022-09-09T12:46:36;7.20;;;2.25;;
48241;SDS011;34041;51.812;4.622;2022-09-09T12:49:38;5.93;;;2.83;;
48241;SDS011;34041;51.812;4.622;2022-09-09T12:52:39;7.25;;;2.45;;
48241;SDS011;34041;51.812;4.622;2022-09-09T12:55:48;5.20;;;2.08;;
48241;SDS011;34041;51.812;4.622;2022-09-09T12:58:49;3.95;;;1.80;;
48241;SDS011;34041;51.812;4.622;2022-09-09T13:01:55;5.40;;;2.40;;
48241;SDS011;34041;51.812;4.622;2022-09-09T13:05:05;8.65;;;2.58;;
48241;SDS011;34041;51.812;4.622;2022-09-09T13:08:08;4.22;;;1.80;;
48241;SDS011;34041;51.812;4.622;2022-09-09T13:11:11;3.10;;;1.35;;
48241;SDS011;34041;51.812;4.622;2022-09-09T13:14:17;3.22;;;1.63;;
48241;SDS011;34041;51.812;4.622;2022-09-09T13:17:23;3.78;;;1.40;;
48241;SDS011;34041;51.812;4.622;2022-09-09T13:20:24;5.22;;;1.63;;
48241;SDS011;34041;51.812;4.622;2022-09-09T13:23:31;5.75;;;2.08;;
48241;SDS011;34041;51.812;4.622;2022-09-09T13:26:32;4.85;;;1.60;;
48241;SDS011;34041;51.812;4.622;2022-09-09T13:29:33;3.25;;;1.40;;
48241;SDS011;34041;51.812;4.622;2022-09-09T13:32:34;2.90;;;1.27;;
48241;SDS011;34041;51.812;4.622;2022-09-09T13:35:34;3.23;;;1.70;;
48241;SDS011;34041;51.812;4.622;2022-09-09T13:38:40;2.88;;;1.55;;
48241;SDS011;34041;51.812;4.622;2022-09-09T13:41:44;6.82;;;1.60;;
48241;SDS011;34041;51.812;4.622;2022-09-09T13:44:45;4.05;;;1.20;;
48241;SDS011;34041;51.812;4.622;2022-09-09T13:47:46;2.67;;;1.38;;
48241;SDS011;34041;51.812;4.622;2022-09-09T13:50:54;2.42;;;1.17;;
48241;SDS011;34041;51.812;4.622;2022-09-09T13:53:54;5.80;;;1.70;;
48241;SDS011;34041;51.812;4.622;2022-09-09T13:56:54;5.53;;;1.40;;
48241;SDS011;34041;51.812;4.622;2022-09-09T13:59:55;4.20;;;1.60;;
48241;SDS011;34041;51.812;4.622;2022-09-09T14:02:55;3.60;;;1.17;;
48241;SDS011;34041;51.812;4.622;2022-09-09T14:05:55;3.47;;;1.33;;
48241;SDS011;34041;51.812;4.622;2022-09-09T14:08:55;4.63;;;1.80;;
48241;SDS011;34041;51.812;4.622;2022-09-09T14:11:56;3.87;;;1.30;;
48241;SDS011;34041;51.812;4.622;2022-09-09T14:14:56;5.65;;;1.30;;
48241;SDS011;34041;51.812;4.622;2022-09-09T14:17:56;4.37;;;1.43;;
48241;SDS011;34041;51.812;4.622;2022-09-09T14:20:58;1.77;;;0.80;;
48241;SDS011;34041;51.812;4.622;2022-09-09T14:23:59;4.17;;;1.53;;
48241;SDS011;34041;51.812;4.622;2022-09-09T14:26:59;1.57;;;0.90;;
48241;SDS011;34041;51.812;4.622;2022-09-09T14:29:59;5.93;;;1.50;;
48241;SDS011;34041;51.812;4.622;2022-09-09T14:33:00;4.03;;;1.00;;
48241;SDS011;34041;51.812;4.622;2022-09-09T14:36:01;6.63;;;1.47;;
48241;SDS011;34041;51.812;4.622;2022-09-09T14:39:03;2.42;;;1.20;;
48241;SDS011;34041;51.812;4.622;2022-09-09T14:42:04;2.33;;;0.98;;
48241;SDS011;34041;51.812;4.622;2022-09-09T14:45:05;4.22;;;1.15;;
48241;SDS011;34041;51.812;4.622;2022-09-09T14:48:05;3.78;;;1.55;;
48241;SDS011;34041;51.812;4.622;2022-09-09T14:51:24;4.37;;;1.37;;
48241;SDS011;34041;51.812;4.622;2022-09-09T14:54:25;6.25;;;2.25;;
48241;SDS011;34041;51.812;4.622;2022-09-09T14:57:25;5.75;;;1.38;;
48241;SDS011;34041;51.812;4.622;2022-09-09T15:00:25;4.17;;;1.47;;
48241;SDS011;34041;51.812;4.622;2022-09-09T15:03:25;3.83;;;2.57;;
48241;SDS011;34041;51.812;4.622;2022-09-09T15:06:26;4.57;;;2.00;;
48241;SDS011;34041;51.812;4.622;2022-09-09T15:09:27;7.32;;;1.95;;
48241;SDS011;34041;51.812;4.622;2022-09-09T15:12:27;4.80;;;2.03;;
48241;SDS011;34041;51.812;4.622;2022-09-09T15:15:28;5.75;;;1.75;;
48241;SDS011;34041;51.812;4.622;2022-09-09T15:18:28;8.57;;;1.93;;
48241;SDS011;34041;51.812;4.622;2022-09-09T15:21:30;5.63;;;2.13;;
48241;SDS011;34041;51.812;4.622;2022-09-09T15:24:33;5.85;;;1.50;;
48241;SDS011;34041;51.812;4.622;2022-09-09T15:27:34;5.00;;;1.57;;
48241;SDS011;34041;51.812;4.622;2022-09-09T15:30:34;7.43;;;1.77;;
48241;SDS011;34041;51.812;4.622;2022-09-09T15:33:35;4.40;;;1.40;;
48241;SDS011;34041;51.812;4.622;2022-09-09T15:36:38;3.83;;;1.35;;
48241;SDS011;34041;51.812;4.622;2022-09-09T15:39:39;5.25;;;1.40;;
48241;SDS011;34041;51.812;4.622;2022-09-09T15:42:39;4.60;;;1.58;;
48241;SDS011;34041;51.812;4.622;2022-09-09T15:45:40;6.03;;;1.70;;
48241;SDS011;34041;51.812;4.622;2022-09-09T15:48:40;2.37;;;1.10;;
48241;SDS011;34041;51.812;4.622;2022-09-09T15:51:41;5.40;;;1.80;;
48241;SDS011;34041;51.812;4.622;2022-09-09T15:54:42;4.63;;;1.70;;
48241;SDS011;34041;51.812;4.622;2022-09-09T15:57:43;5.18;;;1.92;;
48241;SDS011;34041;51.812;4.622;2022-09-09T16:00:43;3.50;;;1.70;;
48241;SDS011;34041;51.812;4.622;2022-09-09T16:03:45;5.57;;;1.50;;
48241;SDS011;34041;51.812;4.622;2022-09-09T16:06:50;7.00;;;2.10;;
48241;SDS011;34041;51.812;4.622;2022-09-09T16:09:51;4.03;;;1.55;;
48241;SDS011;34041;51.812;4.622;2022-09-09T16:12:52;3.90;;;1.83;;
48241;SDS011;34041;51.812;4.622;2022-09-09T16:15:54;6.93;;;1.73;;
48241;SDS011;34041;51.812;4.622;2022-09-09T16:18:55;5.40;;;1.63;;
48241;SDS011;34041;51.812;4.622;2022-09-09T16:21:55;5.78;;;2.05;;
48241;SDS011;34041;51.812;4.622;2022-09-09T16:24:55;4.27;;;1.87;;
48241;SDS011;34041;51.812;4.622;2022-09-09T16:27:56;5.15;;;1.98;;
48241;SDS011;34041;51.812;4.622;2022-09-09T16:30:56;6.78;;;2.22;;
48241;SDS011;34041;51.812;4.622;2022-09-09T16:33:58;5.65;;;1.70;;
48241;SDS011;34041;51.812;4.622;2022-09-09T16:36:58;5.17;;;1.60;;
48241;SDS011;34041;51.812;4.622;2022-09-09T16:39:58;2.90;;;1.20;;
48241;SDS011;34041;51.812;4.622;2022-09-09T16:42:59;5.50;;;2.60;;
48241;SDS011;34041;51.812;4.622;2022-09-09T16:45:59;4.70;;;2.07;;
48241;SDS011;34041;51.812;4.622;2022-09-09T16:49:03;3.30;;;1.50;;
48241;SDS011;34041;51.812;4.622;2022-09-09T16:52:03;5.05;;;1.70;;
48241;SDS011;34041;51.812;4.622;2022-09-09T16:55:03;4.47;;;1.97;;
48241;SDS011;34041;51.812;4.622;2022-09-09T16:58:04;3.78;;;1.60;;
48241;SDS011;34041;51.812;4.622;2022-09-09T17:01:05;6.30;;;2.20;;
48241;SDS011;34041;51.812;4.622;2022-09-09T17:04:06;5.88;;;1.88;;
48241;SDS011;34041;51.812;4.622;2022-09-09T17:07:07;5.13;;;1.55;;
48241;SDS011;34041;51.812;4.622;2022-09-09T17:10:08;3.38;;;1.77;;
48241;SDS011;34041;51.812;4.622;2022-09-09T17:13:08;5.25;;;2.03;;
48241;SDS011;34041;51.812;4.622;2022-09-09T17:16:09;7.57;;;2.40;;
48241;SDS011;34041;51.812;4.622;2022-09-09T17:19:09;6.60;;;2.50;;
48241;SDS011;34041;51.812;4.622;2022-09-09T17:22:10;7.00;;;1.60;;
48241;SDS011;34041;51.812;4.622;2022-09-09T17:25:11;4.82;;;1.70;;
48241;SDS011;34041;51.812;4.622;2022-09-09T17:28:11;6.07;;;1.63;;
48241;SDS011;34041;51.812;4.622;2022-09-09T17:31:12;4.47;;;1.52;;
48241;SDS011;34041;51.812;4.622;2022-09-09T17:34:14;5.25;;;1.73;;
48241;SDS011;34041;51.812;4.622;2022-09-09T17:37:14;2.87;;;1.70;;
48241;SDS011;34041;51.812;4.622;2022-09-09T17:40:14;3.47;;;1.47;;
48241;SDS011;34041;51.812;4.622;2022-09-09T17:43:14;4.88;;;1.90;;
48241;SDS011;34041;51.812;4.622;2022-09-09T17:49:22;3.33;;;1.45;;
48241;SDS011;34041;51.812;4.622;2022-09-09T17:52:22;4.80;;;2.20;;
48241;SDS011;34041;51.812;4.622;2022-09-09T17:55:22;4.97;;;1.55;;
48241;SDS011;34041;51.812;4.622;2022-09-09T17:58:23;3.47;;;1.23;;
48241;SDS011;34041;51.812;4.622;2022-09-09T18:01:24;3.35;;;1.80;;
48241;SDS011;34041;51.812;4.622;2022-09-09T18:04:26;5.53;;;2.20;;
48241;SDS011;34041;51.812;4.622;2022-09-09T18:07:26;2.90;;;1.33;;
48241;SDS011;34041;51.812;4.622;2022-09-09T18:10:27;5.87;;;2.07;;
48241;SDS011;34041;51.812;4.622;2022-09-09T18:13:27;3.20;;;1.75;;
48241;SDS011;34041;51.812;4.622;2022-09-09T18:16:29;4.00;;;2.20;;
48241;SDS011;34041;51.812;4.622;2022-09-09T18:19:30;3.85;;;2.25;;
48241;SDS011;34041;51.812;4.622;2022-09-09T18:22:32;6.53;;;2.63;;
48241;SDS011;34041;51.812;4.622;2022-09-09T18:25:39;6.30;;;2.20;;
48241;SDS011;34041;51.812;4.622;2022-09-09T18:28:40;3.28;;;1.90;;
48241;SDS011;34041;51.812;4.622;2022-09-09T18:31:40;6.10;;;2.22;;
48241;SDS011;34041;51.812;4.622;2022-09-09T18:34:41;4.55;;;2.58;;
48241;SDS011;34041;51.812;4.622;2022-09-09T18:37:41;4.85;;;1.92;;
48241;SDS011;34041;51.812;4.622;2022-09-09T18:40:42;7.73;;;2.00;;
48241;SDS011;34041;51.812;4.622;2022-09-09T18:43:43;2.60;;;1.55;;
48241;SDS011;34041;51.812;4.622;2022-09-09T18:46:43;3.83;;;1.38;;
48241;SDS011;34041;51.812;4.622;2022-09-09T18:49:44;3.40;;;1.35;;
48241;SDS011;34041;51.812;4.622;2022-09-09T18:52:46;3.90;;;1.17;;
48241;SDS011;34041;51.812;4.622;2022-09-09T18:55:47;4.32;;;1.27;;
48241;SDS011;34041;51.812;4.622;2022-09-09T18:58:57;3.22;;;1.00;;
48241;SDS011;34041;51.812;4.622;2022-09-09T19:01:57;3.78;;;1.45;;
48241;SDS011;34041;51.812;4.622;2022-09-09T19:04:58;2.22;;;1.00;;
48241;SDS011;34041;51.812;4.622;2022-09-09T19:07:58;2.80;;;1.10;;
48241;SDS011;34041;51.812;4.622;2022-09-09T19:11:02;1.92;;;0.80;;
48241;SDS011;34041;51.812;4.622;2022-09-09T19:14:04;1.27;;;0.85;;
48241;SDS011;34041;51.812;4.622;2022-09-09T19:17:06;2.55;;;0.85;;
48241;SDS011;34041;51.812;4.622;2022-09-09T19:20:07;1.90;;;0.80;;
48241;SDS011;34041;51.812;4.622;2022-09-09T19:23:08;1.50;;;1.30;;
48241;SDS011;34041;51.812;4.622;2022-09-09T19:26:08;4.32;;;1.17;;
48241;SDS011;34041;51.812;4.622;2022-09-09T19:29:12;2.22;;;1.00;;
48241;SDS011;34041;51.812;4.622;2022-09-09T19:32:15;3.55;;;1.05;;
48241;SDS011;34041;51.812;4.622;2022-09-09T19:35:17;3.17;;;1.20;;
48241;SDS011;34041;51.812;4.622;2022-09-09T19:38:18;4.40;;;1.10;;
48241;SDS011;34041;51.812;4.622;2022-09-09T19:41:19;5.10;;;1.80;;
48241;SDS011;34041;51.812;4.622;2022-09-09T19:44:22;4.05;;;1.63;;
48241;SDS011;34041;51.812;4.622;2022-09-09T19:47:22;5.47;;;2.07;;
48241;SDS011;34041;51.812;4.622;2022-09-09T19:50:23;5.28;;;1.75;;
48241;SDS011;34041;51.812;4.622;2022-09-09T19:53:23;2.10;;;1.07;;
48241;SDS011;34041;51.812;4.622;2022-09-09T19:56:24;5.07;;;1.83;;
48241;SDS011;34041;51.812;4.622;2022-09-09T19:59:25;3.75;;;1.23;;
48241;SDS011;34041;51.812;4.622;2022-09-09T20:02:26;3.03;;;1.30;;
48241;SDS011;34041;51.812;4.622;2022-09-09T20:05:27;3.78;;;1.42;;
48241;SDS011;34041;51.812;4.622;2022-09-09T20:08:30;2.83;;;1.15;;
48241;SDS011;34041;51.812;4.622;2022-09-09T20:11:31;3.72;;;1.20;;
48241;SDS011;34041;51.812;4.622;2022-09-09T20:14:31;3.97;;;1.88;;
48241;SDS011;34041;51.812;4.622;2022-09-09T20:17:31;5.22;;;2.10;;
48241;SDS011;34041;51.812;4.622;2022-09-09T20:20:32;2.57;;;1.00;;
48241;SDS011;34041;51.812;4.622;2022-09-09T20:23:32;3.15;;;1.13;;
48241;SDS011;34041;51.812;4.622;2022-09-09T20:26:33;4.07;;;1.60;;
48241;SDS011;34041;51.812;4.622;2022-09-09T20:29:36;2.15;;;1.50;;
48241;SDS011;34041;51.812;4.622;2022-09-09T20:32:36;2.92;;;1.40;;
48241;SDS011;34041;51.812;4.622;2022-09-09T20:35:36;3.67;;;1.63;;